• Join FlightAware (Why Join?)
  • Login
  • US Flag 
11:33PM EST


 

Airport Tracker/Info


-or-


 

Live Flight TrackerFlight Track Log ✈ ACA573 ✈ 20-Apr-2014 ✈ KLAX - CYYC

Flight Track Log - Related Links

Times and Time Zones

All times are in EDT time to prevent confusion due to time zone crossing. See the ACA573 flight status page for this flight to view local times or setup timezone preferences in your user account.

Time Position Orientation Groundspeed Altitude Reporting Facility
EDT Latitude Longitude Course Direction KTS MPH feet Rate Location/Type
05:19PM 33.9444 -118.4589 North 152 175 1,600  Level Los Angeles Center
05:20PM 33.9408 -118.5297 267° West 202 232 3,100 1,728 Climbing Los Angeles Center
05:21PM 33.9711 -118.6056 296° West 258 297 5,200 1,824 Climbing Los Angeles Center
05:22PM 34.4288 -118.3125 North  Level Estimated
05:22PM 34.0117 -118.6828 302° West 268 308 6,900  Level Los Angeles Center
05:23PM 34.5504 -118.2884 North  Level Estimated
05:23PM 34.0892 -118.6714 North 279 321 8,300  Level Los Angeles Center
05:24PM 34.6719 -118.2643 North  Level Estimated
05:24PM 34.1631 -118.6297 25° Northeast 281 323 10,800  Level Los Angeles Center
05:25PM 34.2428 -118.6244 North 291 335 13,200 2,323 Climbing Los Angeles Center
05:26PM 34.3236 -118.6536 343° North 301 346 15,600 1,742 Climbing Los Angeles Center
05:27PM 34.4125 -118.6839 344° North 338 389 16,800 1,355 Climbing Los Angeles Center
05:28PM 34.5108 -118.7175 344° North 370 426 18,400 1,536 Climbing Los Angeles Center
05:29PM 34.6094 -118.7633 339° North 377 434 20,000 1,824 Climbing Los Angeles Center
05:30PM 34.7317 -118.8272 337° Northwest 398 458 22,200 1,887 Climbing Los Angeles Center
05:31PM 34.8358 -118.8736 340° North 399 459 23,900 1,452 Climbing Los Angeles Center
05:32PM 34.9542 -118.9139 344° North 407 468 25,200 1,306 Climbing Los Angeles Center
05:33PM 35.0672 -118.9519 345° North 420 483 26,600 1,161 Climbing Los Angeles Center
05:34PM 35.1803 -118.9922 344° North 421 484 27,600 968 Climbing Los Angeles Center
05:35PM 35.3003 -119.0322 345° North 439 505 28,600 1,152 Climbing Los Angeles Center
05:36PM 35.4194 -119.0733 344° North 443 510 30,000 1,296 Climbing Los Angeles Center
05:37PM 35.5600 -119.1075 349° North 434 499 31,300 1,065 Climbing Los Angeles Center
05:38PM 35.6803 -119.1231 354° North 434 499 32,200 919 Climbing Los Angeles Center
05:39PM 35.8017 -119.1394 354° North 438 504 33,200 919 Climbing Los Angeles Center
05:40PM 35.9228 -119.1556 354° North 438 504 34,100 866 Climbing Los Angeles Center
05:41PM 35.9933 -119.1661 353° North 438 504 34,600 625 Climbing Oakland Center
05:42PM 36.1106 -119.1803 354° North 431 496 35,100 585 Climbing Oakland Center
05:43PM 36.2300 -119.1967 354° North 432 497 35,800 435 Climbing Oakland Center
05:44PM 36.3744 -119.2164 354° North 435 501 36,000 98 Climbing Oakland Center
05:45PM 36.4978 -119.2322 354° North 444 511 36,000  Level Oakland Center
05:46PM 36.6203 -119.2478 354° North 444 511 36,000  Level Oakland Center
05:47PM 36.7442 -119.2653 354° North 445 512 36,000  Level Oakland Center
05:48PM 36.8669 -119.2814 354° North 446 513 36,000  Level Oakland Center
05:49PM 36.9894 -119.3039 352° North 445 512 36,000  Level Oakland Center
05:50PM 37.1028 -119.3608 338° Northwest 443 510 36,000  Level Oakland Center
05:51PM 37.2161 -119.4142 339° North 438 504 36,000  Level Oakland Center
05:52PM 37.3636 -119.4406 352° North 451 519 36,000  Level Oakland Center
05:53PM 37.4875 -119.4542 355° North 450 518 36,000  Level Oakland Center
05:54PM 37.6119 -119.4661 356° North 450 518 36,000  Level Oakland Center
05:55PM 37.7344 -119.4778 356° North 455 524 36,000  Level Oakland Center
05:56PM 37.8578 -119.4894 356° North 447 514 36,000  Level Oakland Center
05:57PM 37.9842 -119.5014 356° North 454 522 36,000  Level Oakland Center
05:58PM 38.1350 -119.5158 356° North 454 522 36,000  Level Oakland Center
05:59PM 38.2603 -119.5297 355° North 453 521 36,000  Level Oakland Center
06:00PM 38.3858 -119.5406 356° North 453 521 36,000  Level Oakland Center
06:01PM 38.5050 -119.5539 355° North 451 519 36,000  Level Oakland Center
06:03PM 38.6300 -119.5658 356° North 451 519 36,000  Level Oakland Center
06:04PM 38.7544 -119.5781 356° North 451 519 36,000  Level Oakland Center
06:05PM 38.9056 -119.5444 10° North 458 527 36,000  Level Oakland Center
06:06PM 39.0333 -119.4992 15° North 470 541 36,000  Level Oakland Center
06:07PM 39.1589 -119.4550 15° North 468 539 36,000 49 Level Oakland Center
06:08PM 39.2828 -119.4094 16° North 463 533 36,100 244 Climbing Oakland Center
06:09PM 39.4078 -119.3642 16° North 463 533 36,500 439 Climbing Oakland Center
06:10PM 39.5344 -119.3167 16° North 467 537 37,000 244 Climbing Oakland Center
06:11PM 39.6589 -119.2647 18° North 466 536 37,000  Level Oakland Center
06:12PM 39.7839 -119.2131 18° North 467 537 37,000  Level Oakland Center
06:13PM 39.9094 -119.1631 17° North 467 537 37,000  Level Oakland Center
06:14PM 40.0333 -119.1114 18° North 467 537 37,000  Level Oakland Center
06:15PM 40.1828 -119.0511 17° North 466 536 37,000  Level Oakland Center
06:16PM 40.3056 -118.9997 18° North 464 534 37,000  Level Oakland Center
06:17PM 40.4264 -118.9494 18° North 458 527 37,000  Level Oakland Center
06:18PM 40.5478 -118.8989 18° North 455 524 37,000  Level Oakland Center
06:19PM 40.6678 -118.8497 17° North 456 525 37,000  Level Oakland Center
06:20PM 40.7892 -118.7981 18° North 456 525 37,000  Level Oakland Center
06:21PM 40.9106 -118.7456 18° North 457 526 37,000  Level Oakland Center
06:22PM 41.0439 -118.6897 18° North 458 527 37,000  Level Oakland Center
06:23PM 41.2017 -118.6256 17° North 459 528 37,000  Level Salt Lake Center
06:24PM 41.3183 -118.5756 18° North 459 528 37,000  Level Salt Lake Center
06:25PM 41.4564 -118.5164 18° North 460 529 37,000  Level Salt Lake Center
06:26PM 41.5733 -118.4644 18° North 460 529 37,000  Level Salt Lake Center
06:27PM 41.7092 -118.4064 18° North 459 528 37,000  Level Salt Lake Center
06:28PM 41.8283 -118.3558 18° North 465 535 37,000  Level Salt Lake Center
06:29PM 41.9453 -118.3028 19° North 465 535 37,000  Level Salt Lake Center
06:30PM 42.0831 -118.2439 18° North 464 534 37,000  Level Salt Lake Center
06:32PM 42.2003 -118.1911 18° North 464 534 37,000  Level Salt Lake Center
06:33PM 42.3419 -118.1256 19° North 467 537 37,000  Level Salt Lake Center
06:34PM 42.4642 -118.0717 18° North 465 535 37,000  Level Salt Lake Center
06:35PM 42.5869 -118.0189 18° North 463 533 37,000  Level Salt Lake Center
06:36PM 42.7094 -117.9633 18° North 462 532 37,000  Level Salt Lake Center
06:37PM 42.8322 -117.9072 19° North 463 533 37,000  Level Salt Lake Center
06:38PM 42.9547 -117.8531 18° North 464 534 37,000  Level Salt Lake Center
06:39PM 43.0769 -117.7978 18° North 464 534 37,000  Level Salt Lake Center
06:40PM 43.1981 -117.7419 19° North 461 531 37,000  Level Salt Lake Center
06:41PM 43.3450 -117.6753 18° North 462 532 37,000  Level Salt Lake Center
06:42PM 43.4653 -117.6208 18° North 460 529 37,000  Level Salt Lake Center
06:43PM 43.5858 -117.5656 18° North 459 528 37,000  Level Salt Lake Center
06:44PM 43.7072 -117.5100 18° North 459 528 37,000  Level Salt Lake Center
06:45PM 43.8264 -117.4544 19° North 456 525 37,000  Level Salt Lake Center
06:46PM 43.9469 -117.3981 19° North 456 525 37,000  Level Salt Lake Center
06:47PM 44.0683 -117.3425 18° North 456 525 37,000  Level Salt Lake Center
06:48PM 44.1897 -117.2850 19° North 457 526 37,000  Level Salt Lake Center
06:49PM 44.3372 -117.2161 18° North 461 531 37,000  Level Salt Lake Center
06:50PM 44.4586 -117.1575 19° North 461 531 37,000  Level Salt Lake Center
06:51PM 44.5797 -117.1011 18° North 460 529 37,000  Level Salt Lake Center
06:52PM 44.7019 -117.0428 19° North 460 529 37,000  Level Salt Lake Center
06:53PM 44.8231 -116.9833 19° North 460 529 37,000  Level Salt Lake Center
06:54PM 44.9456 -116.9244 19° North 461 531 37,000  Level Salt Lake Center
06:55PM 45.0694 -116.8781 15° North 460 529 37,000  Level Salt Lake Center
06:56PM 45.1914 -116.8508 North 449 517 37,000  Level Salt Lake Center
06:57PM 45.3136 -116.8242 North 446 513 37,000  Level Salt Lake Center
06:58PM 45.4625 -116.7931 North 447 514 37,000  Level Salt Lake Center
06:59PM 45.5872 -116.7631 10° North 449 517 37,000  Level Salt Lake Center
07:00PM 45.7108 -116.7369 North 450 518 37,000  Level Salt Lake Center
07:01PM 45.8342 -116.7069 10° North 450 518 37,000  Level Salt Lake Center
07:02PM 45.9586 -116.6764 10° North 453 521 37,000  Level Salt Lake Center
07:03PM 46.0933 -116.6469 North 456 525 37,000  Level Salt Lake Center
07:04PM 46.2167 -116.6183 North 452 520 37,000  Level Salt Lake Center
07:05PM 46.3397 -116.5900 North 451 519 37,000  Level Salt Lake Center
07:06PM 46.4633 -116.5603 North 451 519 37,000  Level Salt Lake Center
07:07PM 46.5875 -116.5311 North 452 520 37,000  Level Salt Lake Center
07:08PM 46.7106 -116.5036 North 451 519 37,000  Level Salt Lake Center
07:09PM 46.8325 -116.4747 North 448 516 37,000  Level Salt Lake Center
07:11PM 46.9803 -116.4386 North 449 517 37,000  Level Seattle Center
07:12PM 47.1031 -116.4092 North 449 517 37,000  Level Seattle Center
07:13PM 47.2506 -116.3747 North 449 517 37,000  Level Seattle Center
07:14PM 47.3739 -116.3436 10° North 450 518 37,000  Level Seattle Center
07:15PM 47.4975 -116.3142 North 450 518 37,000  Level Seattle Center
07:16PM 47.6222 -116.2839 North 456 525 37,000  Level Seattle Center
07:17PM 47.7453 -116.2542 North 455 524 37,000  Level Seattle Center
07:18PM 47.8697 -116.2244 North 455 524 37,000  Level Seattle Center
07:19PM 47.9944 -116.1936 North 455 524 37,000  Level Seattle Center
07:20PM 48.1189 -116.1639 North 456 525 37,000  Level Seattle Center
07:21PM 48.2436 -116.1350 North 455 524 37,000  Level Seattle Center
07:22PM 48.3669 -116.1036 10° North 455 524 37,000  Level Seattle Center
07:22PM 48.4500 -116.0333 29° Northeast 450 518 37,000  Level Vancouver Center
07:23PM 48.5667 -116.0167 North 450 518 37,000  Level Vancouver Center
07:24PM 48.7000 -115.9833 North 450 518 37,000  Level Vancouver Center
07:25PM 48.8167 -115.9667 North 450 518 37,000  Level Vancouver Center
07:26PM 48.9500 -115.9167 14° North 450 518 37,000  Level Vancouver Center
07:27PM 49.0833 -115.8833 North 450 518 37,000  Level Vancouver Center
07:28PM 49.2000 -115.8667 North 450 518 37,000  Level Vancouver Center
07:29PM 49.3167 -115.8333 11° North 440 506 37,000  Level Vancouver Center
07:30PM 49.4333 -115.7333 29° Northeast 470 541 37,000 -200 Level Vancouver Center
07:31PM 49.5500 -115.6333 29° Northeast 470 541 36,600 -800 Descending Vancouver Center
07:32PM 49.6500 -115.5333 33° Northeast 460 529 35,400 -1,800 Descending Vancouver Center
07:33PM 49.7667 -115.4333 29° Northeast 470 541 33,000 -2,350 Descending Vancouver Center
07:34PM 49.8833 -115.3667 20° North 460 529 30,700 -2,400 Descending Vancouver Center
07:35PM 49.9833 -115.2500 37° Northeast 450 518 28,200 -2,300 Descending Vancouver Center
07:36PM 50.0833 -115.1667 28° Northeast 430 495 26,100 -1,600 Descending Vancouver Center
07:37PM 50.2000 -115.0833 25° Northeast 400 460 25,000 -1,950 Descending Vancouver Center
07:38PM 50.2667 -115.0000 39° Northeast 390 449 22,200 -2,950 Descending Vancouver Center
07:39PM 50.3833 -114.9167 24° Northeast 400 460 19,100 -2,850 Descending Vancouver Center
07:40PM 50.4667 -114.8167 37° Northeast 390 449 16,500 -2,150 Descending Vancouver Center
07:41PM 50.5500 -114.7500 27° Northeast 360 414 14,800 -1,300 Descending Vancouver Center
07:42PM 50.6333 -114.6833 27° Northeast 310 357 13,900 -1,250 Descending Vancouver Center
07:43PM 50.7000 -114.6167 32° Northeast 280 322 12,300 -1,033 Descending Vancouver Center
07:45PM 50.7333 -114.5833 32° Northeast 280 322 11,800 -738 Descending Edmonton Center
07:46PM 50.8000 -114.4833 43° Northeast 270 311 10,800 -1,000 Descending Edmonton Center
07:47PM 50.8333 -114.4167 52° Northeast 270 311 9,800 -1,150 Descending Edmonton Center
07:48PM 50.8833 -114.3167 52° Northeast 260 299 8,500 -1,400 Descending Edmonton Center
07:49PM 50.8667 -114.2000 103° East 250 288 7,000 -950 Descending Edmonton Center
07:50PM 50.8167 -114.1333 140° Southeast 240 276 6,600 -400 Descending Edmonton Center
07:51PM 50.8333 -114.0667 68° East 190 219 6,200 -200 Descending Edmonton Center
07:52PM 50.8667 -114.0333 32° Northeast 170 196 6,200  Level Edmonton Center
07:53PM 50.9167 -114.0500 348° North 170 196 6,200 -400 Level Edmonton Center
07:54PM 50.9667 -114.0333 12° North 170 196 5,400 -900 Descending Edmonton Center
07:55PM 51.0167 -114.0500 348° North 170 196 4,400 -850 Descending Edmonton Center
07:56PM 51.0667 -114.0500 360° North 160 184 3,700 -400 Descending Edmonton Center
07:57PM 51.0833 -114.0333 32° Northeast 10 12 3,600 -33 Descending Edmonton Center
07:59PM 51.1000 -114.0333 360° North 20 23 3,600  Level Edmonton Center